Christina O — C6FN7 — position and weather

sailwx.info

Track history (hours):
 
Tides and Currents Weather Stations Pressure Air Temp Water Temp Dewpoint Dewpoint Depression Visibility Wind Speed Wind Dir Waves Ship Positions

Christina O

Operator: V Ships Leisure SAM

Last reported at 2014-Dec-20 01:33 UTC. Time now 2014-Dec-20 02:19 UTC.
Position N 25°39' W 080°00'.

Length 186 m; draft 6.1 m.

Type: Ship. MMSI: 308322000.

Date/timePositionNaut miles runAvg speedWind from/ knotsBaromVisibWave heightAir tempDewpointWater temp
2014-Dec-20 01:33N 25°39' W 080°00'1515.0
2014-Dec-20 00:33N 25°53' W 079°58'1313.4
2014-Dec-19 23:33N 26°06' W 080°05'2 1.8
2014-Dec-19 22:23N 26°05' W 080°07'0 0.0
2014-Dec-19 21:26N 26°05' W 080°07'0 0.0
2014-Dec-19 20:26N 26°05' W 080°07'0 0.0
2014-Dec-19 19:26N 26°05' W 080°07'0 0.0
2014-Dec-19 18:26N 26°05' W 080°07'0 0.0
2014-Dec-19 17:29N 26°05' W 080°07'0 0.0
2014-Dec-19 16:29N 26°05' W 080°07'0 0.0
2014-Dec-19 15:29N 26°05' W 080°07'0 0.0
2014-Dec-19 14:29N 26°05' W 080°07'0 0.0
2014-Dec-19 13:29N 26°05' W 080°07'0 0.0
2014-Dec-19 12:32N 26°05' W 080°07'0 0.0
2014-Dec-19 11:32N 26°05' W 080°07'3 3.2
2014-Dec-19 10:33N 26°06' W 080°04'1010.0
2014-Dec-19 09:33N 26°06' W 079°52'1313.0
2014-Dec-19 08:33N 26°08' W 079°38'1413.6
2014-Dec-19 07:33N 26°09' W 079°23'1311.7
2014-Dec-19 06:26N 26°10' W 079°08'  
2014-Dec-16 22:06N 18°39' W 064°57'917.0
2014-Dec-16 21:33N 18°36' W 064°48'2016.0
2014-Dec-16 20:19N 18°28' W 064°29'2 1.7
2014-Dec-16 19:07N 18°27' W 064°27'0 0.0
2014-Dec-16 11:13N 18°27' W 064°27'4 6.7
2014-Dec-16 10:33N 18°23' W 064°27'159 5.3
2014-Dec-15 04:33N 16°37' W 062°23'1514.6
2014-Dec-15 03:32N 16°25' W 062°14'4614.6
2014-Dec-15 00:24N 15°47' W 061°46'  
Track history (hours):
 
Tides and Currents Weather Stations Pressure Air Temp Water Temp Dewpoint Dewpoint Depression Visibility Wind Speed Wind Dir Waves Ship Positions

Christina O

Operator: V Ships Leisure SAM

Last reported at 2014-Dec-20 01:33 UTC. Time now 2014-Dec-20 02:19 UTC.
Position N 25°39' W 080°00'.

Length 186 m; draft 6.1 m.

Type: Ship. MMSI: 308322000.

Date/timePositionNaut miles runAvg speedWind from/ knotsBaromVisibWave heightAir tempDewpointWater temp
2014-Dec-20 01:33N 25°39' W 080°00'1515.0
2014-Dec-20 00:33N 25°53' W 079°58'1313.4
2014-Dec-19 23:33N 26°06' W 080°05'2 1.8
2014-Dec-19 22:23N 26°05' W 080°07'0 0.0
2014-Dec-19 21:26N 26°05' W 080°07'0 0.0
2014-Dec-19 20:26N 26°05' W 080°07'0 0.0
2014-Dec-19 19:26N 26°05' W 080°07'0 0.0
2014-Dec-19 18:26N 26°05' W 080°07'0 0.0
2014-Dec-19 17:29N 26°05' W 080°07'0 0.0
2014-Dec-19 16:29N 26°05' W 080°07'0 0.0
2014-Dec-19 15:29N 26°05' W 080°07'0 0.0
2014-Dec-19 14:29N 26°05' W 080°07'0 0.0
2014-Dec-19 13:29N 26°05' W 080°07'0 0.0
2014-Dec-19 12:32N 26°05' W 080°07'0 0.0
2014-Dec-19 11:32N 26°05' W 080°07'3 3.2
2014-Dec-19 10:33N 26°06' W 080°04'1010.0
2014-Dec-19 09:33N 26°06' W 079°52'1313.0
2014-Dec-19 08:33N 26°08' W 079°38'1413.6
2014-Dec-19 07:33N 26°09' W 079°23'1311.7
2014-Dec-19 06:26N 26°10' W 079°08'  
2014-Dec-16 22:06N 18°39' W 064°57'917.0
2014-Dec-16 21:33N 18°36' W 064°48'2016.0
2014-Dec-16 20:19N 18°28' W 064°29'2 1.7
2014-Dec-16 19:07N 18°27' W 064°27'0 0.0
2014-Dec-16 11:13N 18°27' W 064°27'4 6.7
2014-Dec-16 10:33N 18°23' W 064°27'159 5.3
2014-Dec-15 04:33N 16°37' W 062°23'1514.6
2014-Dec-15 03:32N 16°25' W 062°14'4614.6
2014-Dec-15 00:24N 15°47' W 061°46'  

Dump ship's entire track history